createdAt,value
2023-02-12T00:02:12.873Z,99184.53
2023-02-12T00:04:39.303Z,99186.31
2023-02-12T00:07:05.875Z,99193.47
2023-02-12T00:09:32.418Z,99194.38
2023-02-12T00:11:58.876Z,99193.34
2023-02-12T00:14:25.419Z,99203.72
2023-02-12T00:16:51.967Z,99203.69
2023-02-12T00:19:18.426Z,99203.50
2023-02-12T00:21:44.904Z,99196.44
2023-02-12T00:24:13.860Z,99204.59
2023-02-12T00:26:40.346Z,99195.97
2023-02-12T00:29:06.817Z,99197.69
2023-02-12T00:31:33.451Z,99202.41
2023-02-12T00:34:02.721Z,99208.47
2023-02-12T00:36:31.809Z,99204.41
2023-02-12T00:38:59.010Z,99209.78
2023-02-12T00:41:26.235Z,99216.09
2023-02-12T00:43:52.724Z,99211.22
2023-02-12T00:46:19.429Z,99207.25
2023-02-12T00:48:46.022Z,99203.84
2023-02-12T00:51:12.906Z,99192.75
2023-02-12T00:53:39.662Z,99187.78
2023-02-12T00:56:06.419Z,99190.50
2023-02-12T00:58:33.248Z,99181.16
2023-02-12T01:00:59.806Z,99184.69
2023-02-12T01:03:26.436Z,99191.06
2023-02-12T01:05:53.703Z,99190.97
2023-02-12T01:08:20.540Z,99189.06
2023-02-12T01:10:56.716Z,99188.66
2023-02-12T01:13:25.532Z,99192.88
2023-02-12T01:16:14.117Z,99193.75
2023-02-12T01:18:40.997Z,99190.28
2023-02-12T01:21:19.577Z,99189.53
2023-02-12T01:23:47.433Z,99184.75
2023-02-12T01:26:15.007Z,99190.75
2023-02-12T01:28:43.244Z,99185.63
2023-02-12T01:31:11.711Z,99185.63
2023-02-12T01:33:38.407Z,99192.56
2023-02-12T01:36:05.187Z,99193.56
2023-02-12T01:38:31.637Z,99200.66
2023-02-12T01:41:21.528Z,99193.56
2023-02-12T01:44:17.366Z,99209.81
2023-02-12T01:46:48.211Z,99209.84
2023-02-12T01:49:21.420Z,99197.59
2023-02-12T01:51:52.304Z,99201.22
2023-02-12T01:54:22.687Z,99189.09
2023-02-12T01:56:49.406Z,99193.50
2023-02-12T01:59:16.982Z,99191.00
2023-02-12T02:01:43.452Z,99192.66
2023-02-12T02:04:19.667Z,99201.50
2023-02-12T02:06:56.300Z,99200.66
2023-02-12T02:09:25.602Z,99195.63
2023-02-12T02:12:10.701Z,99194.66
2023-02-12T02:14:39.752Z,99187.94
2023-02-12T02:17:19.704Z,99188.78
2023-02-12T02:20:05.011Z,99177.59
2023-02-12T02:22:42.414Z,99181.91
2023-02-12T02:25:24.415Z,99184.41
2023-02-12T02:28:09.875Z,99190.59
2023-02-12T02:30:45.363Z,99198.72
2023-02-12T02:33:44.013Z,99200.28
2023-02-12T02:36:15.396Z,99196.63
2023-02-12T02:38:45.947Z,99182.56
2023-02-12T02:41:27.650Z,99182.75
2023-02-12T02:43:58.069Z,99182.84
2023-02-12T02:46:52.291Z,99185.50
2023-02-12T02:49:21.698Z,99178.75
2023-02-12T02:52:02.079Z,99182.97
2023-02-12T02:54:36.052Z,99182.78
2023-02-12T02:57:11.953Z,99189.69
2023-02-12T02:59:46.485Z,99187.25
2023-02-12T03:02:36.256Z,99192.25
2023-02-12T03:05:15.939Z,99188.13
2023-02-12T03:07:52.354Z,99176.78
2023-02-12T03:10:24.267Z,99176.03
2023-02-12T03:13:00.016Z,99173.66
2023-02-12T03:15:36.574Z,99183.94
2023-02-12T03:18:09.882Z,99184.91
2023-02-12T03:20:43.501Z,99184.75
2023-02-12T03:23:11.248Z,99189.00
2023-02-12T03:25:58.771Z,99192.06
2023-02-12T03:28:38.503Z,99195.91
2023-02-12T03:31:22.358Z,99190.72
2023-02-12T03:34:11.497Z,99191.69
2023-02-12T03:36:41.061Z,99188.31
2023-02-12T03:39:30.317Z,99187.34
2023-02-12T03:42:13.027Z,99190.63
2023-02-12T03:44:52.878Z,99183.94
2023-02-12T03:47:49.671Z,99193.31
2023-02-12T03:50:41.050Z,99199.53
2023-02-12T03:53:07.810Z,99209.16
2023-02-12T03:55:39.496Z,99212.56
2023-02-12T03:58:09.450Z,99219.44
2023-02-12T04:00:38.555Z,99219.50
2023-02-12T04:03:06.473Z,99213.44
2023-02-12T04:05:35.513Z,99215.19
2023-02-12T04:08:09.562Z,99226.41
2023-02-12T04:11:07.636Z,99216.00
2023-02-12T04:13:50.740Z,99210.91
2023-02-12T04:16:29.840Z,99211.69
2023-02-12T04:18:56.948Z,99209.06
2023-02-12T04:21:44.786Z,99223.53
2023-02-12T04:24:46.522Z,99229.66
2023-02-12T04:27:24.631Z,99224.97
2023-02-12T04:29:53.755Z,99228.34
2023-02-12T04:32:45.228Z,99223.94
2023-02-12T04:35:19.099Z,99227.41
2023-02-12T04:37:50.946Z,99234.41
2023-02-12T04:40:24.177Z,99233.56
2023-02-12T04:42:53.289Z,99245.78
2023-02-12T04:45:27.121Z,99247.31
2023-02-12T04:47:53.809Z,99244.63
2023-02-12T04:50:20.600Z,99240.34
2023-02-12T04:52:47.289Z,99245.56
2023-02-12T04:55:15.151Z,99250.75
2023-02-12T04:57:41.743Z,99240.09
2023-02-12T05:00:13.601Z,99248.66
2023-02-12T05:02:40.485Z,99254.91
2023-02-12T05:05:07.338Z,99247.97
2023-02-12T05:07:33.935Z,99247.25
2023-02-12T05:10:03.595Z,99250.75
2023-02-12T05:12:30.157Z,99248.97
2023-02-12T05:14:57.584Z,99250.75
2023-02-12T05:17:25.059Z,99241.34
2023-02-12T05:19:52.407Z,99246.69
2023-02-12T05:22:18.971Z,99241.34
2023-02-12T05:24:45.635Z,99245.66
2023-02-12T05:27:12.532Z,99250.84
2023-02-12T05:29:39.161Z,99259.63
2023-02-12T05:32:07.014Z,99263.06
2023-02-12T05:34:34.368Z,99264.00
2023-02-12T05:37:01.370Z,99257.03
2023-02-12T05:39:28.192Z,99260.38
2023-02-12T05:41:54.769Z,99255.19
2023-02-12T05:44:21.323Z,99268.19
2023-02-12T05:46:47.947Z,99269.16
2023-02-12T05:49:14.527Z,99271.53
2023-02-12T05:51:41.149Z,99272.50
2023-02-12T05:54:10.405Z,99265.72
2023-02-12T05:56:42.422Z,99265.75
2023-02-12T05:59:15.496Z,99261.47
2023-02-12T06:01:46.356Z,99265.72
2023-02-12T06:04:23.735Z,99258.16
2023-02-12T06:06:55.748Z,99265.00
2023-02-12T06:09:23.361Z,99263.22
2023-02-12T06:11:50.094Z,99262.31
2023-02-12T06:14:19.884Z,99264.88
2023-02-12T06:16:51.399Z,99277.06
2023-02-12T06:19:19.831Z,99279.63
2023-02-12T06:21:46.769Z,99278.75
2023-02-12T06:24:15.061Z,99279.59
2023-02-12T06:26:41.812Z,99282.25
2023-02-12T06:29:11.440Z,99282.09
2023-02-12T06:31:38.479Z,99283.84
2023-02-12T06:34:08.161Z,99290.03
2023-02-12T06:36:37.414Z,99276.22
2023-02-12T06:39:04.422Z,99290.66
2023-02-12T06:41:31.077Z,99293.41
2023-02-12T06:43:57.677Z,99290.91
2023-02-12T06:46:24.374Z,99289.97
2023-02-12T06:48:55.764Z,99284.81
2023-02-12T06:51:23.602Z,99296.84
2023-02-12T06:53:51.359Z,99300.25
2023-02-12T06:56:19.226Z,99298.50
2023-02-12T06:58:47.774Z,99302.66
2023-02-12T07:01:18.150Z,99304.53
2023-02-12T07:03:50.945Z,99306.97
2023-02-12T07:06:18.280Z,99310.50
2023-02-12T07:08:45.102Z,99304.22
2023-02-12T07:11:12.107Z,99303.38
2023-02-12T07:13:41.254Z,99309.41
2023-02-12T07:16:10.752Z,99316.38
2023-02-12T07:18:38.678Z,99310.41
2023-02-12T07:21:07.158Z,99309.59
2023-02-12T07:23:34.780Z,99316.31
2023-02-12T07:26:03.524Z,99315.59
2023-02-12T07:28:33.666Z,99305.25
2023-02-12T07:31:07.788Z,99305.03
2023-02-12T07:33:34.786Z,99312.03
2023-02-12T07:36:02.224Z,99313.06
2023-02-12T07:38:29.414Z,99306.19
2023-02-12T07:40:58.853Z,99307.59
2023-02-12T07:43:25.441Z,99311.22
2023-02-12T07:45:52.063Z,99310.28
2023-02-12T07:48:18.629Z,99317.75
2023-02-12T07:50:47.678Z,99314.66
2023-02-12T07:53:14.217Z,99315.44
2023-02-12T07:55:43.236Z,99312.03
2023-02-12T07:58:09.835Z,99307.63
2023-02-12T08:00:36.444Z,99310.06
2023-02-12T08:03:03.005Z,99303.09
2023-02-12T08:05:29.751Z,99306.53
2023-02-12T08:07:56.297Z,99310.94
2023-02-12T08:10:23.686Z,99303.72
2023-02-12T08:12:50.298Z,99300.97
2023-02-12T08:15:17.084Z,99300.00
2023-02-12T08:17:43.641Z,99305.31
2023-02-12T08:20:10.527Z,99298.44
2023-02-12T08:22:37.076Z,99289.66
2023-02-12T08:25:03.653Z,99293.44
2023-02-12T08:27:30.287Z,99289.75
2023-02-12T08:29:56.871Z,99293.16
2023-02-12T08:32:23.438Z,99294.78
2023-02-12T08:34:50.024Z,99291.28
2023-02-12T08:37:16.581Z,99297.13
2023-02-12T08:39:43.269Z,99293.00
2023-02-12T08:42:09.843Z,99292.03
2023-02-12T08:44:37.136Z,99288.53
2023-02-12T08:47:04.023Z,99294.88
2023-02-12T08:49:32.769Z,99288.75
2023-02-12T08:52:01.874Z,99283.88
2023-02-12T08:54:30.586Z,99278.59
2023-02-12T08:57:01.262Z,99280.78
2023-02-12T08:59:28.287Z,99289.28
2023-02-12T09:01:55.552Z,99288.56
2023-02-12T09:04:27.303Z,99294.00
2023-02-12T09:06:54.477Z,99295.00
2023-02-12T09:09:21.248Z,99292.34
2023-02-12T09:11:48.290Z,99294.59
2023-02-12T09:14:18.742Z,99305.22
2023-02-12T09:16:46.437Z,99307.25
2023-02-12T09:19:14.522Z,99303.63
2023-02-12T09:21:43.669Z,99303.28
2023-02-12T09:24:10.764Z,99309.63
2023-02-12T09:26:39.387Z,99303.16
2023-02-12T09:29:06.396Z,99306.44
2023-02-12T09:31:33.789Z,99313.28
2023-02-12T09:34:06.453Z,99314.78
2023-02-12T09:36:33.691Z,99311.84
2023-02-12T09:39:00.532Z,99318.94
2023-02-12T09:41:39.413Z,99311.16
2023-02-12T09:44:42.343Z,99318.25
2023-02-12T09:47:19.875Z,99316.09
2023-02-12T09:49:54.775Z,99323.97
2023-02-12T09:52:26.712Z,99321.66
2023-02-12T09:54:54.104Z,99324.66
2023-02-12T09:57:33.565Z,99324.50
2023-02-12T10:00:06.784Z,99337.28
2023-02-12T10:02:36.875Z,99328.66
2023-02-12T10:05:04.718Z,99339.47
2023-02-12T10:07:43.516Z,99332.16
2023-02-12T10:10:17.831Z,99337.94
2023-02-12T10:12:56.727Z,99334.81
2023-02-12T10:15:34.473Z,99339.56
2023-02-12T10:18:30.484Z,99340.03
2023-02-12T10:21:11.835Z,99340.66
2023-02-12T10:24:01.764Z,99335.88
2023-02-12T10:26:55.710Z,99342.22
2023-02-12T10:29:25.563Z,99336.19
2023-02-12T10:32:00.722Z,99343.38
2023-02-12T10:34:34.045Z,99346.47
2023-02-12T10:37:25.819Z,99349.22
2023-02-12T10:39:58.912Z,99354.06
2023-02-12T10:42:47.585Z,99359.56
2023-02-12T10:45:16.952Z,99351.56
2023-02-12T10:47:46.286Z,99349.88
2023-02-12T10:50:52.705Z,99348.94
2023-02-12T10:53:29.053Z,99354.41
2023-02-12T10:56:14.205Z,99352.47
2023-02-12T10:58:50.756Z,99346.75
2023-02-12T11:01:22.272Z,99343.13
2023-02-12T11:03:49.163Z,99345.50
2023-02-12T11:06:19.868Z,99343.09
2023-02-12T11:08:48.107Z,99339.78
2023-02-12T11:11:23.066Z,99336.88
2023-02-12T11:14:04.924Z,99343.47
2023-02-12T11:16:37.828Z,99344.53
2023-02-12T11:19:07.331Z,99337.00
2023-02-12T11:21:37.268Z,99335.03
2023-02-12T11:24:30.734Z,99341.97
2023-02-12T11:27:15.573Z,99339.22
2023-02-12T11:29:43.622Z,99336.63
2023-02-12T11:32:17.933Z,99333.84
2023-02-12T11:34:44.558Z,99333.03
2023-02-12T11:37:20.303Z,99333.81
2023-02-12T11:39:49.421Z,99327.97
2023-02-12T11:42:17.716Z,99330.06
2023-02-12T11:44:57.018Z,99321.81
2023-02-12T11:47:35.493Z,99321.00
2023-02-12T11:50:08.170Z,99323.06
2023-02-12T11:52:40.411Z,99322.44
2023-02-12T11:55:27.949Z,99323.78
2023-02-12T11:58:12.787Z,99316.47
2023-02-12T12:00:50.381Z,99311.78
2023-02-12T12:03:20.934Z,99316.38
2023-02-12T12:05:52.604Z,99314.50
2023-02-12T12:08:26.020Z,99318.09
2023-02-12T12:11:19.077Z,99315.22
2023-02-12T12:13:57.348Z,99310.13
2023-02-12T12:16:54.965Z,99311.25
2023-02-12T12:19:57.036Z,99309.72
2023-02-12T12:23:00.898Z,99308.66
2023-02-12T12:26:04.685Z,99313.94
2023-02-12T12:28:51.119Z,99312.00
2023-02-12T12:31:25.576Z,99312.13
2023-02-12T12:34:17.460Z,99316.00
2023-02-12T12:36:55.558Z,99323.69
2023-02-12T12:39:25.053Z,99313.25
2023-02-12T12:42:06.841Z,99312.44
2023-02-12T12:44:47.155Z,99309.88
2023-02-12T12:47:19.523Z,99296.38
2023-02-12T12:50:12.217Z,99296.72
2023-02-12T12:52:54.436Z,99294.72
2023-02-12T12:55:24.184Z,99294.75
2023-02-12T12:58:15.527Z,99289.66
2023-02-12T13:00:55.825Z,99285.66
2023-02-12T13:03:32.098Z,99286.84
2023-02-12T13:06:22.428Z,99277.38
2023-02-12T13:09:27.418Z,99273.44
2023-02-12T13:12:20.086Z,99269.59
2023-02-12T13:14:57.903Z,99264.97
2023-02-12T13:17:46.062Z,99268.16
2023-02-12T13:20:15.478Z,99263.38
2023-02-12T13:23:09.280Z,99264.56
2023-02-12T13:26:11.105Z,99269.88
2023-02-12T13:28:52.099Z,99269.75
2023-02-12T13:31:32.895Z,99266.06
2023-02-12T13:34:07.162Z,99262.06
2023-02-12T13:36:39.060Z,99260.56
2023-02-12T13:39:34.245Z,99262.19
2023-02-12T13:42:21.974Z,99268.09
2023-02-12T13:45:07.182Z,99271.91
2023-02-12T13:47:39.651Z,99262.41
2023-02-12T13:50:34.387Z,99269.06
2023-02-12T13:53:23.044Z,99267.38
2023-02-12T13:56:01.700Z,99267.38
2023-02-12T13:58:34.860Z,99271.16
2023-02-12T14:01:08.710Z,99276.88
2023-02-12T14:03:36.994Z,99273.84
2023-02-12T14:06:16.976Z,99275.16
2023-02-12T14:09:10.836Z,99269.25
2023-02-12T14:11:50.382Z,99268.25
2023-02-12T14:14:28.221Z,99264.34
2023-02-12T14:16:57.400Z,99269.94
2023-02-12T14:19:40.145Z,99263.03
2023-02-12T14:22:33.777Z,99269.94
2023-02-12T14:25:25.776Z,99268.78
2023-02-12T14:27:54.371Z,99268.28
2023-02-12T14:30:31.731Z,99262.56
2023-02-12T14:33:08.782Z,99271.78
2023-02-12T14:35:41.552Z,99266.31
2023-02-12T14:38:17.919Z,99269.84
2023-02-12T14:40:47.097Z,99266.66
2023-02-12T14:43:55.046Z,99264.69
2023-02-12T14:46:24.605Z,99260.84
2023-02-12T14:49:04.987Z,99255.25
2023-02-12T14:51:53.327Z,99263.25
2023-02-12T14:54:41.958Z,99262.28
2023-02-12T14:57:35.005Z,99261.56
2023-02-12T15:00:39.046Z,99258.66
2023-02-12T15:03:15.099Z,99259.50
2023-02-12T15:06:18.891Z,99262.31
2023-02-12T15:09:01.225Z,99265.25
2023-02-12T15:11:33.814Z,99271.88
2023-02-12T15:14:02.048Z,99272.47
2023-02-12T15:16:33.956Z,99266.16
2023-02-12T15:19:10.189Z,99272.44
2023-02-12T15:21:38.299Z,99280.28
2023-02-12T15:24:08.033Z,99274.00
2023-02-12T15:26:41.452Z,99276.53
2023-02-12T15:29:25.202Z,99286.91
2023-02-12T15:32:06.823Z,99277.31
2023-02-12T15:34:41.868Z,99280.94
2023-02-12T15:37:19.470Z,99283.06
2023-02-12T15:39:48.024Z,99278.16
2023-02-12T15:42:28.794Z,99282.34
2023-02-12T15:45:10.575Z,99292.88
2023-02-12T15:47:37.169Z,99289.59
2023-02-12T15:50:03.923Z,99294.09
2023-02-12T15:52:38.815Z,99294.19
2023-02-12T15:55:06.304Z,99292.53
2023-02-12T15:57:33.473Z,99286.66
2023-02-12T16:00:09.363Z,99288.34
2023-02-12T16:02:35.925Z,99288.47
2023-02-12T16:05:04.504Z,99285.00
2023-02-12T16:07:36.182Z,99291.59
2023-02-12T16:10:04.484Z,99293.94
2023-02-12T16:12:37.606Z,99299.03
2023-02-12T16:15:05.384Z,99294.53
2023-02-12T16:17:34.208Z,99286.56
2023-02-12T16:20:04.355Z,99291.66
2023-02-12T16:22:40.233Z,99286.53
2023-02-12T16:25:17.712Z,99291.06
2023-02-12T16:28:17.868Z,99290.66
2023-02-12T16:30:48.231Z,99290.84
2023-02-12T16:33:35.160Z,99297.53
2023-02-12T16:36:06.220Z,99291.81
2023-02-12T16:38:47.485Z,99290.03
2023-02-12T16:41:20.419Z,99292.78
2023-02-12T16:43:52.288Z,99290.13
2023-02-12T16:46:20.558Z,99297.88
2023-02-12T16:48:52.490Z,99289.34
2023-02-12T16:51:27.431Z,99287.59
2023-02-12T16:53:57.434Z,99296.50
2023-02-12T16:56:26.289Z,99293.16
2023-02-12T16:58:56.281Z,99293.59
2023-02-12T17:01:35.301Z,99296.41
2023-02-12T17:04:06.679Z,99300.06
2023-02-12T17:06:35.742Z,99293.91
2023-02-12T17:09:02.375Z,99295.84
2023-02-12T17:11:31.381Z,99292.53
2023-02-12T17:13:57.919Z,99295.22
2023-02-12T17:16:30.688Z,99292.47
2023-02-12T17:18:58.606Z,99294.28
2023-02-12T17:21:31.863Z,99298.50
2023-02-12T17:23:58.747Z,99299.25
2023-02-12T17:26:25.797Z,99300.94
2023-02-12T17:28:52.298Z,99296.69
2023-02-12T17:31:20.688Z,99293.25
2023-02-12T17:33:47.320Z,99293.59
2023-02-12T17:36:16.070Z,99294.28
2023-02-12T17:38:42.568Z,99295.06
2023-02-12T17:41:11.871Z,99293.47
2023-02-12T17:43:41.033Z,99301.34
2023-02-12T17:46:18.921Z,99301.56
2023-02-12T17:48:45.744Z,99301.34
2023-02-12T17:51:14.754Z,99302.09
2023-02-12T17:53:41.326Z,99302.06
2023-02-12T17:56:14.785Z,99303.75
2023-02-12T17:58:42.392Z,99306.75
2023-02-12T18:01:11.630Z,99310.72
2023-02-12T18:03:38.980Z,99313.63
2023-02-12T18:06:06.917Z,99311.03
2023-02-12T18:08:33.830Z,99299.72
2023-02-12T18:11:06.032Z,99300.81
2023-02-12T18:13:34.857Z,99303.63
2023-02-12T18:16:01.842Z,99306.19
2023-02-12T18:18:28.347Z,99303.53
2023-02-12T18:20:55.337Z,99301.88
2023-02-12T18:23:22.056Z,99298.34
2023-02-12T18:25:48.618Z,99300.13
2023-02-12T18:28:15.153Z,99305.31
2023-02-12T18:30:43.247Z,99305.25
2023-02-12T18:33:12.394Z,99301.16
2023-02-12T18:35:41.674Z,99307.25
2023-02-12T18:38:08.212Z,99304.94
2023-02-12T18:40:34.710Z,99307.59
2023-02-12T18:43:01.279Z,99304.19
2023-02-12T18:45:27.820Z,99302.41
2023-02-12T18:47:54.507Z,99298.13
2023-02-12T18:50:21.313Z,99288.69
2023-02-12T18:52:47.775Z,99297.22
2023-02-12T18:55:14.278Z,99300.34
2023-02-12T18:57:40.749Z,99294.31
2023-02-12T19:00:08.065Z,99293.28
2023-02-12T19:02:34.649Z,99305.50
2023-02-12T19:05:01.203Z,99296.56
2023-02-12T19:07:27.777Z,99295.16
2023-02-12T19:09:54.360Z,99301.25
2023-02-12T19:12:20.921Z,99295.97
2023-02-12T19:14:47.436Z,99295.84
2023-02-12T19:17:14.033Z,99295.31
2023-02-12T19:19:40.643Z,99297.03
2023-02-12T19:22:07.332Z,99293.81
2023-02-12T19:24:46.002Z,99291.81
2023-02-12T19:27:13.637Z,99297.13
2023-02-12T19:29:40.232Z,99301.34
2023-02-12T19:32:06.918Z,99291.50
2023-02-12T19:34:33.505Z,99292.44
2023-02-12T19:37:00.195Z,99293.50
2023-02-12T19:39:27.484Z,99285.59
2023-02-12T19:41:56.141Z,99299.31
2023-02-12T19:44:25.563Z,99291.59
2023-02-12T19:46:52.976Z,99285.63
2023-02-12T19:49:23.169Z,99296.00
2023-02-12T19:51:50.230Z,99281.59
2023-02-12T19:54:18.624Z,99289.94
2023-02-12T19:56:45.716Z,99283.31
2023-02-12T19:59:17.363Z,99276.59
2023-02-12T20:01:44.945Z,99268.81
2023-02-12T20:04:17.732Z,99275.69
2023-02-12T20:06:49.052Z,99276.81
2023-02-12T20:09:15.607Z,99269.66
2023-02-12T20:11:42.198Z,99281.84
2023-02-12T20:14:12.132Z,99282.69
2023-02-12T20:16:41.631Z,99282.22
2023-02-12T20:19:12.827Z,99273.38
2023-02-12T20:21:42.421Z,99275.91
2023-02-12T20:24:08.969Z,99273.41
2023-02-12T20:26:38.237Z,99276.88
2023-02-12T20:29:05.527Z,99279.38
2023-02-12T20:31:37.937Z,99276.31
2023-02-12T20:34:11.670Z,99274.59
2023-02-12T20:36:38.942Z,99271.06
2023-02-12T20:39:08.287Z,99274.59
2023-02-12T20:41:38.164Z,99276.50
2023-02-12T20:44:06.620Z,99274.84
2023-02-12T20:46:36.104Z,99277.44
2023-02-12T20:49:02.923Z,99277.50
2023-02-12T20:51:31.703Z,99281.59
2023-02-12T20:54:01.306Z,99290.91
2023-02-12T20:56:33.074Z,99286.59
2023-02-12T20:59:00.894Z,99282.34
2023-02-12T21:01:32.776Z,99286.69
2023-02-12T21:04:03.579Z,99286.03
2023-02-12T21:06:30.310Z,99288.63
2023-02-12T21:08:56.845Z,99288.69
2023-02-12T21:11:25.180Z,99288.69
2023-02-12T21:14:02.570Z,99281.78
2023-02-12T21:16:38.594Z,99288.69
2023-02-12T21:19:05.189Z,99274.97
2023-02-12T21:21:33.664Z,99278.50
2023-02-12T21:24:01.701Z,99268.94
2023-02-12T21:26:32.733Z,99278.50
2023-02-12T21:29:00.809Z,99273.38
2023-02-12T21:31:32.184Z,99278.50
2023-02-12T21:34:00.415Z,99276.03
2023-02-12T21:36:38.748Z,99283.03
2023-02-12T21:39:07.973Z,99278.84
2023-02-12T21:41:37.318Z,99276.19
2023-02-12T21:44:23.770Z,99285.69
2023-02-12T21:46:52.728Z,99281.28
2023-02-12T21:49:27.465Z,99280.28
2023-02-12T21:52:03.234Z,99284.72
2023-02-12T21:54:30.652Z,99288.19
2023-02-12T21:56:58.542Z,99285.63
2023-02-12T21:59:26.423Z,99290.69
2023-02-12T22:01:58.321Z,99296.94
2023-02-12T22:04:25.358Z,99298.75
2023-02-12T22:06:52.848Z,99291.94
2023-02-12T22:09:21.302Z,99291.09
2023-02-12T22:11:47.872Z,99288.50
2023-02-12T22:14:16.993Z,99297.16
2023-02-12T22:16:44.346Z,99300.66
2023-02-12T22:19:10.938Z,99295.34
2023-02-12T22:21:40.150Z,99294.56
2023-02-12T22:24:09.020Z,99295.69
2023-02-12T22:26:35.510Z,99299.94
2023-02-12T22:29:07.952Z,99303.34
2023-02-12T22:31:37.100Z,99301.56
2023-02-12T22:34:07.424Z,99300.94
2023-02-12T22:36:35.602Z,99299.06
2023-02-12T22:39:03.115Z,99300.91
2023-02-12T22:41:30.157Z,99306.16
2023-02-12T22:44:00.356Z,99309.59
2023-02-12T22:46:29.773Z,99309.59
2023-02-12T22:48:56.390Z,99306.19
2023-02-12T22:51:25.955Z,99311.50
2023-02-12T22:53:52.992Z,99314.81
2023-02-12T22:56:19.662Z,99319.19
2023-02-12T22:58:46.792Z,99317.38
2023-02-12T23:01:18.444Z,99318.41
2023-02-12T23:03:45.765Z,99308.09
2023-02-12T23:06:15.122Z,99303.66
2023-02-12T23:08:42.045Z,99309.91
2023-02-12T23:11:08.957Z,99304.63
2023-02-12T23:13:39.309Z,99302.03
2023-02-12T23:16:05.844Z,99299.53
2023-02-12T23:18:32.740Z,99298.69
2023-02-12T23:20:59.740Z,99289.22
2023-02-12T23:23:27.075Z,99294.44
2023-02-12T23:25:54.675Z,99293.53
2023-02-12T23:28:21.980Z,99295.31
2023-02-12T23:30:49.876Z,99291.00
2023-02-12T23:33:16.957Z,99290.97
2023-02-12T23:35:46.821Z,99283.41
2023-02-12T23:38:13.345Z,99279.91
2023-02-12T23:40:40.641Z,99272.22
2023-02-12T23:43:07.447Z,99276.44
2023-02-12T23:45:36.192Z,99271.22
2023-02-12T23:48:02.642Z,99274.63
2023-02-12T23:50:29.257Z,99275.50
2023-02-12T23:52:55.711Z,99266.13
2023-02-12T23:55:22.245Z,99265.34
2023-02-12T23:57:49.702Z,99267.88
